createdAt,value
2023-02-13T00:01:18.746Z,1.72
2023-02-13T00:03:59.733Z,1.82
2023-02-13T00:06:43.902Z,1.89
2023-02-13T00:09:29.904Z,1.92
2023-02-13T00:12:13.813Z,1.92
2023-02-13T00:15:00.495Z,1.91
2023-02-13T00:17:41.550Z,1.93
2023-02-13T00:20:31.541Z,1.98
2023-02-13T00:23:18.733Z,2.03
2023-02-13T00:26:01.113Z,2.10
2023-02-13T00:28:45.032Z,2.16
2023-02-13T00:31:28.806Z,2.22
2023-02-13T00:34:10.527Z,2.28
2023-02-13T00:36:58.745Z,2.32
2023-02-13T00:39:40.735Z,2.36
2023-02-13T00:42:26.627Z,2.40
2023-02-13T00:45:07.540Z,2.42
2023-02-13T00:47:56.685Z,2.45
2023-02-13T00:50:38.527Z,2.50
2023-02-13T00:53:27.524Z,2.55
2023-02-13T00:56:03.304Z,2.57
2023-02-13T00:58:51.529Z,2.56
2023-02-13T01:01:26.071Z,2.56
2023-02-13T01:04:14.539Z,2.58
2023-02-13T01:06:48.948Z,2.66
2023-02-13T01:09:36.537Z,2.72
2023-02-13T01:12:17.543Z,2.75
2023-02-13T01:14:58.649Z,2.76
2023-02-13T01:17:47.540Z,2.75
2023-02-13T01:20:23.648Z,2.75
2023-02-13T01:23:13.568Z,2.77
2023-02-13T01:25:51.891Z,2.78
2023-02-13T01:28:39.597Z,2.77
2023-02-13T01:31:14.980Z,2.75
2023-02-13T01:34:05.518Z,2.77
2023-02-13T01:36:39.655Z,2.83
2023-02-13T01:39:27.719Z,2.88
2023-02-13T01:42:02.661Z,2.90
2023-02-13T01:45:07.511Z,2.91
2023-02-13T01:48:01.664Z,2.91
2023-02-13T01:50:56.998Z,2.94
2023-02-13T01:53:56.711Z,2.98
2023-02-13T01:56:46.705Z,3.02
2023-02-13T01:59:40.498Z,3.03
2023-02-13T02:02:21.654Z,3.03
2023-02-13T02:05:09.507Z,3.00
2023-02-13T02:07:43.941Z,2.97
2023-02-13T02:10:33.710Z,2.99
2023-02-13T02:13:26.495Z,3.03
2023-02-13T02:16:14.588Z,3.07
2023-02-13T02:18:50.639Z,3.08
2023-02-13T02:22:03.563Z,3.08
2023-02-13T02:24:55.637Z,3.10
2023-02-13T02:28:08.768Z,3.09
2023-02-13T02:31:00.954Z,3.07
2023-02-13T02:34:22.523Z,3.03
2023-02-13T02:37:11.631Z,3.00
2023-02-13T02:40:46.720Z,2.97
2023-02-13T02:43:53.644Z,2.99
2023-02-13T02:46:46.607Z,3.03
2023-02-13T02:49:39.925Z,3.04
2023-02-13T02:52:35.494Z,3.03
2023-02-13T02:55:28.508Z,3.00
2023-02-13T02:58:48.497Z,3.01
2023-02-13T03:01:56.504Z,3.09
2023-02-13T03:05:06.003Z,3.16
2023-02-13T03:07:53.499Z,3.20
2023-02-13T03:10:55.495Z,3.24
2023-02-13T03:13:50.502Z,3.26
2023-02-13T03:16:55.504Z,3.29
2023-02-13T03:20:26.504Z,3.34
2023-02-13T03:23:43.502Z,3.36
2023-02-13T03:26:46.443Z,3.36
2023-02-13T03:30:04.498Z,3.34
2023-02-13T03:32:55.537Z,3.38
2023-02-13T03:36:13.029Z,3.45
2023-02-13T03:39:11.502Z,3.51
2023-02-13T03:42:09.514Z,3.52
2023-02-13T03:45:18.700Z,3.54
2023-02-13T03:48:03.709Z,3.55
2023-02-13T03:50:46.802Z,3.57
2023-02-13T03:53:29.694Z,3.60
2023-02-13T03:56:38.488Z,3.62
2023-02-13T03:59:35.377Z,3.60
2023-02-13T04:02:28.499Z,3.54
2023-02-13T04:05:08.777Z,3.51
2023-02-13T04:07:56.522Z,3.44
2023-02-13T04:10:33.177Z,3.42
2023-02-13T04:13:45.501Z,3.42
2023-02-13T04:16:33.667Z,3.39
2023-02-13T04:19:22.511Z,3.37
2023-02-13T04:22:06.487Z,3.37
2023-02-13T04:24:54.496Z,3.40
2023-02-13T04:27:42.485Z,3.45
2023-02-13T04:30:17.639Z,3.49
2023-02-13T04:33:06.693Z,3.50
2023-02-13T04:35:41.709Z,3.51
2023-02-13T04:38:29.547Z,3.52
2023-02-13T04:41:04.653Z,3.53
2023-02-13T04:43:52.498Z,3.54
2023-02-13T04:46:27.903Z,3.54
2023-02-13T04:49:19.484Z,3.56
2023-02-13T04:52:01.493Z,3.57
2023-02-13T04:54:56.495Z,3.58
2023-02-13T04:57:44.609Z,3.58
2023-02-13T05:00:28.609Z,3.61
2023-02-13T05:03:15.510Z,3.62
2023-02-13T05:06:03.479Z,3.59
2023-02-13T05:08:37.981Z,3.56
2023-02-13T05:11:25.491Z,3.54
2023-02-13T05:14:00.121Z,3.53
2023-02-13T05:16:49.492Z,3.52
2023-02-13T05:19:23.908Z,3.53
2023-02-13T05:22:29.491Z,3.52
2023-02-13T05:25:25.490Z,3.47
2023-02-13T05:28:36.521Z,3.41
2023-02-13T05:31:17.939Z,3.39
2023-02-13T05:34:00.665Z,3.41
2023-02-13T05:36:49.574Z,3.47
2023-02-13T05:39:25.104Z,3.50
2023-02-13T05:42:13.577Z,3.51
2023-02-13T05:44:55.693Z,3.49
2023-02-13T05:47:37.803Z,3.48
2023-02-13T05:50:19.667Z,3.48
2023-02-13T05:53:01.666Z,3.50
2023-02-13T05:55:43.660Z,3.49
2023-02-13T05:58:26.682Z,3.48
2023-02-13T06:01:08.653Z,3.46
2023-02-13T06:03:59.295Z,3.43
2023-02-13T06:06:34.976Z,3.44
2023-02-13T06:09:22.475Z,3.46
2023-02-13T06:12:10.451Z,3.46
2023-02-13T06:14:58.492Z,3.46
2023-02-13T06:17:33.606Z,3.48
2023-02-13T06:20:21.464Z,3.49
2023-02-13T06:23:04.471Z,3.51
2023-02-13T06:25:59.469Z,3.56
2023-02-13T06:28:47.475Z,3.60
2023-02-13T06:31:22.982Z,3.62
2023-02-13T06:34:10.657Z,3.62
2023-02-13T06:36:45.594Z,3.62
2023-02-13T06:39:33.457Z,3.63
2023-02-13T06:42:14.474Z,3.65
2023-02-13T06:45:09.462Z,3.66
2023-02-13T06:47:58.488Z,3.68
2023-02-13T06:50:41.473Z,3.68
2023-02-13T06:53:36.467Z,3.70
2023-02-13T06:56:24.469Z,3.75
2023-02-13T06:59:06.464Z,3.80
2023-02-13T07:02:01.459Z,3.85
2023-02-13T07:04:49.472Z,3.88
2023-02-13T07:07:24.596Z,3.89
2023-02-13T07:10:14.490Z,3.91
2023-02-13T07:13:03.752Z,3.96
2023-02-13T07:15:53.493Z,4.04
2023-02-13T07:18:28.654Z,4.08
2023-02-13T07:21:16.577Z,4.09
2023-02-13T07:23:51.609Z,4.13
2023-02-13T07:26:39.476Z,4.17
2023-02-13T07:29:23.595Z,4.22
2023-02-13T07:32:04.479Z,4.23
2023-02-13T07:35:00.586Z,4.26
2023-02-13T07:37:42.654Z,4.30
2023-02-13T07:40:26.611Z,4.33
2023-02-13T07:43:08.465Z,4.33
2023-02-13T07:45:49.727Z,4.37
2023-02-13T07:48:33.463Z,4.44
2023-02-13T07:51:21.654Z,4.52
2023-02-13T07:53:57.695Z,4.62
2023-02-13T07:56:45.456Z,4.70
2023-02-13T07:59:26.527Z,4.76
2023-02-13T08:02:14.698Z,4.87
2023-02-13T08:04:57.619Z,4.97
2023-02-13T08:07:39.596Z,5.06
2023-02-13T08:10:39.485Z,5.15
2023-02-13T08:13:34.534Z,5.26
2023-02-13T08:16:22.688Z,5.35
2023-02-13T08:18:58.732Z,5.43
2023-02-13T08:21:47.486Z,5.50
2023-02-13T08:24:26.249Z,5.57
2023-02-13T08:27:14.574Z,5.63
2023-02-13T08:30:03.442Z,5.67
2023-02-13T08:32:53.919Z,5.70
2023-02-13T08:35:35.706Z,5.78
2023-02-13T08:38:17.492Z,5.84
2023-02-13T08:41:06.286Z,5.88
2023-02-13T08:43:40.968Z,5.91
2023-02-13T08:46:29.547Z,5.95
2023-02-13T08:49:24.428Z,6.01
2023-02-13T08:52:12.461Z,6.06
2023-02-13T08:54:47.600Z,6.09
2023-02-13T08:57:35.543Z,6.12
2023-02-13T09:00:17.436Z,6.15
2023-02-13T09:03:10.424Z,6.19
2023-02-13T09:05:45.584Z,6.28
2023-02-13T09:08:33.435Z,6.39
2023-02-13T09:11:09.586Z,6.54
2023-02-13T09:14:07.446Z,6.66
2023-02-13T09:17:02.603Z,6.79
2023-02-13T09:19:50.460Z,6.92
2023-02-13T09:22:31.562Z,7.04
2023-02-13T09:25:13.440Z,7.12
2023-02-13T09:27:54.595Z,7.16
2023-02-13T09:30:42.465Z,7.17
2023-02-13T09:33:17.613Z,7.16
2023-02-13T09:36:05.614Z,7.11
2023-02-13T09:38:42.933Z,7.09
2023-02-13T09:41:35.528Z,7.06
2023-02-13T09:44:44.764Z,7.05
2023-02-13T09:47:39.466Z,7.05
2023-02-13T09:50:36.719Z,7.08
2023-02-13T09:53:29.441Z,7.17
2023-02-13T09:56:56.516Z,7.25
2023-02-13T09:59:54.485Z,7.41
2023-02-13T10:03:03.444Z,7.52
2023-02-13T10:05:55.370Z,7.58
2023-02-13T10:09:12.439Z,7.63
2023-02-13T10:12:08.489Z,7.79
2023-02-13T10:15:31.552Z,7.99
2023-02-13T10:18:24.431Z,8.10
2023-02-13T10:21:09.447Z,8.06
2023-02-13T10:24:04.445Z,7.98
2023-02-13T10:26:54.422Z,7.94
2023-02-13T10:29:53.424Z,7.94
2023-02-13T10:33:17.438Z,7.99
2023-02-13T10:36:01.888Z,8.01
2023-02-13T10:38:55.439Z,8.00
2023-02-13T10:41:58.552Z,8.01
2023-02-13T10:45:04.515Z,8.03
2023-02-13T10:47:55.211Z,8.01
2023-02-13T10:51:13.459Z,7.96
2023-02-13T10:54:12.760Z,7.97
2023-02-13T10:57:04.485Z,8.07
2023-02-13T10:59:55.624Z,8.18
2023-02-13T11:02:48.430Z,8.31
2023-02-13T11:05:31.732Z,8.38
2023-02-13T11:08:35.462Z,8.31
2023-02-13T11:11:35.619Z,8.29
2023-02-13T11:14:28.431Z,8.37
2023-02-13T11:17:24.429Z,8.50
2023-02-13T11:20:04.547Z,8.58
2023-02-13T11:22:52.426Z,8.57
2023-02-13T11:25:32.385Z,8.55
2023-02-13T11:28:27.448Z,8.51
2023-02-13T11:31:33.583Z,8.41
2023-02-13T11:34:29.504Z,8.37
2023-02-13T11:37:26.450Z,8.22
2023-02-13T11:40:22.388Z,7.98
2023-02-13T11:43:10.412Z,7.71
2023-02-13T11:45:45.036Z,7.56
2023-02-13T11:48:36.455Z,7.46
2023-02-13T11:51:10.835Z,7.35
2023-02-13T11:53:58.419Z,7.21
2023-02-13T11:57:08.827Z,7.18
2023-02-13T11:59:58.433Z,7.30
2023-02-13T12:02:52.547Z,7.25
2023-02-13T12:05:41.421Z,7.14
2023-02-13T12:08:29.434Z,7.13
2023-02-13T12:11:05.554Z,7.17
2023-02-13T12:13:53.442Z,7.14
2023-02-13T12:16:52.690Z,7.11
2023-02-13T12:19:49.424Z,7.10
2023-02-13T12:22:38.601Z,7.14
2023-02-13T12:25:26.569Z,7.14
2023-02-13T12:28:13.844Z,7.07
2023-02-13T12:31:17.520Z,6.99
2023-02-13T12:34:25.527Z,6.95
2023-02-13T12:37:16.413Z,6.85
2023-02-13T12:40:32.416Z,6.78
2023-02-13T12:43:51.413Z,6.72
2023-02-13T12:46:53.441Z,6.60
2023-02-13T12:49:34.617Z,6.54
2023-02-13T12:52:47.416Z,6.56
2023-02-13T12:55:31.575Z,6.65
2023-02-13T12:58:40.505Z,6.74
2023-02-13T13:01:26.487Z,6.90
2023-02-13T13:04:33.480Z,7.02
2023-02-13T13:07:34.626Z,7.06
2023-02-13T13:10:54.512Z,7.14
2023-02-13T13:13:43.676Z,7.19
2023-02-13T13:16:53.452Z,7.11
2023-02-13T13:19:38.534Z,6.99
2023-02-13T13:22:30.409Z,6.83
2023-02-13T13:25:31.543Z,6.76
2023-02-13T13:28:40.437Z,6.69
2023-02-13T13:31:15.606Z,6.72
2023-02-13T13:34:09.405Z,6.73
2023-02-13T13:37:02.395Z,6.69
2023-02-13T13:40:10.418Z,6.64
2023-02-13T13:43:06.384Z,6.63
2023-02-13T13:45:58.870Z,6.63
2023-02-13T13:48:52.408Z,6.61
2023-02-13T13:51:40.407Z,6.56
2023-02-13T13:54:32.477Z,6.44
2023-02-13T13:57:07.726Z,6.29
2023-02-13T13:59:58.523Z,6.14
2023-02-13T14:02:48.473Z,6.01
2023-02-13T14:05:40.410Z,5.88
2023-02-13T14:08:53.392Z,5.77
2023-02-13T14:11:55.394Z,5.72
2023-02-13T14:14:50.415Z,5.72
2023-02-13T14:18:00.405Z,5.73
2023-02-13T14:20:49.405Z,5.76
2023-02-13T14:23:36.585Z,5.80
2023-02-13T14:26:24.413Z,5.84
2023-02-13T14:28:58.513Z,5.81
2023-02-13T14:31:49.487Z,5.81
2023-02-13T14:34:31.576Z,5.78
2023-02-13T14:37:24.417Z,5.76
2023-02-13T14:40:25.512Z,5.71
2023-02-13T14:43:27.404Z,5.63
2023-02-13T14:46:15.528Z,5.58
2023-02-13T14:49:10.405Z,5.54
2023-02-13T14:51:57.616Z,5.51
2023-02-13T14:54:50.384Z,5.45
2023-02-13T14:57:36.579Z,5.43
2023-02-13T15:00:42.437Z,5.43
2023-02-13T15:04:01.447Z,5.46
2023-02-13T15:06:58.390Z,5.44
2023-02-13T15:09:41.820Z,5.43
2023-02-13T15:12:47.391Z,5.42
2023-02-13T15:15:46.442Z,5.40
2023-02-13T15:18:48.496Z,5.37
2023-02-13T15:21:40.408Z,5.35
2023-02-13T15:24:36.386Z,5.37
2023-02-13T15:27:37.373Z,5.40
2023-02-13T15:30:36.386Z,5.42
2023-02-13T15:33:33.437Z,5.44
2023-02-13T15:36:32.394Z,5.43
2023-02-13T15:39:17.372Z,5.39
2023-02-13T15:42:07.391Z,5.31
2023-02-13T15:44:49.389Z,5.28
2023-02-13T15:47:45.392Z,5.24
2023-02-13T15:50:39.484Z,5.20
2023-02-13T15:53:27.385Z,5.16
2023-02-13T15:56:21.393Z,5.11
2023-02-13T15:58:56.556Z,5.06
2023-02-13T16:01:46.465Z,5.02
2023-02-13T16:04:28.504Z,5.00
2023-02-13T16:07:09.381Z,4.97
2023-02-13T16:09:57.398Z,4.93
2023-02-13T16:13:01.370Z,4.89
2023-02-13T16:15:57.616Z,4.85
2023-02-13T16:18:54.368Z,4.83
2023-02-13T16:21:42.386Z,4.80
2023-02-13T16:24:28.547Z,4.74
2023-02-13T16:27:21.594Z,4.66
2023-02-13T16:30:24.971Z,4.57
2023-02-13T16:33:22.605Z,4.46
2023-02-13T16:36:00.412Z,4.39
2023-02-13T16:38:56.196Z,4.30
2023-02-13T16:41:39.524Z,4.24
2023-02-13T16:44:38.381Z,4.17
2023-02-13T16:47:20.384Z,4.12
2023-02-13T16:50:08.367Z,4.10
2023-02-13T16:52:44.498Z,4.11
2023-02-13T16:55:34.578Z,4.11
2023-02-13T16:58:18.571Z,4.09
2023-02-13T17:01:08.390Z,4.05
2023-02-13T17:03:43.600Z,4.00
2023-02-13T17:06:31.588Z,3.97
2023-02-13T17:09:07.713Z,3.94
2023-02-13T17:11:59.359Z,3.90
2023-02-13T17:14:48.387Z,3.83
2023-02-13T17:17:45.373Z,3.78
2023-02-13T17:20:36.590Z,3.74
2023-02-13T17:23:21.362Z,3.72
2023-02-13T17:26:09.380Z,3.70
2023-02-13T17:28:44.704Z,3.69
2023-02-13T17:31:32.766Z,3.68
2023-02-13T17:34:08.519Z,3.67
2023-02-13T17:36:56.377Z,3.67
2023-02-13T17:39:31.653Z,3.69
2023-02-13T17:42:24.378Z,3.72
2023-02-13T17:45:00.544Z,3.73
2023-02-13T17:47:50.382Z,3.73
2023-02-13T17:50:26.569Z,3.73
2023-02-13T17:53:29.574Z,3.75
2023-02-13T17:56:05.970Z,3.81
2023-02-13T17:58:55.360Z,3.87
2023-02-13T18:01:29.549Z,3.93
2023-02-13T18:04:17.357Z,3.98
2023-02-13T18:06:59.553Z,4.00
2023-02-13T18:09:40.788Z,4.04
2023-02-13T18:12:35.371Z,4.05
2023-02-13T18:15:23.863Z,4.06
2023-02-13T18:18:11.373Z,4.06
2023-02-13T18:20:53.364Z,4.07
2023-02-13T18:23:48.327Z,4.06
2023-02-13T18:26:36.352Z,4.04
2023-02-13T18:29:18.349Z,4.02
2023-02-13T18:32:15.678Z,4.02
2023-02-13T18:35:05.339Z,4.01
2023-02-13T18:37:48.439Z,4.00
2023-02-13T18:40:43.360Z,3.99
2023-02-13T18:43:26.220Z,3.98
2023-02-13T18:46:23.487Z,3.96
2023-02-13T18:49:12.343Z,3.96
2023-02-13T18:51:47.479Z,3.98
2023-02-13T18:54:35.347Z,4.01
2023-02-13T18:57:11.509Z,4.02
2023-02-13T18:59:59.361Z,4.01
2023-02-13T19:02:34.702Z,3.99
2023-02-13T19:05:24.363Z,3.99
2023-02-13T19:08:06.335Z,4.04
2023-02-13T19:10:54.551Z,4.07
2023-02-13T19:13:50.543Z,4.09
2023-02-13T19:16:49.242Z,4.11
2023-02-13T19:19:41.746Z,4.09
2023-02-13T19:22:19.982Z,4.08
2023-02-13T19:25:09.857Z,4.08
2023-02-13T19:27:45.567Z,4.10
2023-02-13T19:30:34.956Z,4.10
2023-02-13T19:33:13.131Z,4.08
2023-02-13T19:36:13.355Z,4.05
2023-02-13T19:38:48.823Z,4.03
2023-02-13T19:41:42.756Z,4.02
2023-02-13T19:44:22.400Z,4.03
2023-02-13T19:47:13.335Z,4.03
2023-02-13T19:49:56.350Z,4.04
2023-02-13T19:52:52.853Z,4.03
2023-02-13T19:55:43.383Z,4.03
2023-02-13T19:58:20.585Z,4.03
2023-02-13T20:01:24.585Z,4.04
2023-02-13T20:04:03.499Z,4.07
2023-02-13T20:06:52.341Z,4.07
2023-02-13T20:09:29.360Z,4.08
2023-02-13T20:12:17.342Z,4.10
2023-02-13T20:14:52.694Z,4.09
2023-02-13T20:17:43.603Z,4.08
2023-02-13T20:20:26.328Z,4.09
2023-02-13T20:23:21.432Z,4.11
2023-02-13T20:26:20.332Z,4.13
2023-02-13T20:29:10.334Z,4.13
2023-02-13T20:31:52.491Z,4.11
2023-02-13T20:34:58.218Z,4.10
2023-02-13T20:37:40.514Z,4.09
2023-02-13T20:40:31.778Z,4.10
2023-02-13T20:43:13.457Z,4.11
2023-02-13T20:45:55.738Z,4.10
2023-02-13T20:48:37.336Z,4.07
2023-02-13T20:51:20.453Z,4.03
2023-02-13T20:54:02.343Z,3.99
2023-02-13T20:56:45.471Z,3.97
2023-02-13T20:59:26.315Z,3.96
2023-02-13T21:02:07.465Z,3.97
2023-02-13T21:04:49.358Z,3.97
2023-02-13T21:07:31.840Z,3.95
2023-02-13T21:10:13.320Z,3.93
2023-02-13T21:12:54.438Z,3.91
2023-02-13T21:15:42.333Z,3.90
2023-02-13T21:18:18.473Z,3.93
2023-02-13T21:21:07.321Z,3.94
2023-02-13T21:23:42.450Z,3.96
2023-02-13T21:26:31.330Z,3.99
2023-02-13T21:29:06.440Z,4.00
2023-02-13T21:31:55.779Z,4.00
2023-02-13T21:34:37.344Z,4.01
2023-02-13T21:37:32.451Z,4.03
2023-02-13T21:40:20.391Z,4.03
2023-02-13T21:42:55.495Z,4.00
2023-02-13T21:45:43.593Z,3.97
2023-02-13T21:48:18.452Z,3.93
2023-02-13T21:51:06.314Z,3.90
2023-02-13T21:53:48.456Z,3.88
2023-02-13T21:56:48.370Z,3.87
2023-02-13T21:59:36.392Z,3.86
2023-02-13T22:02:11.553Z,3.84
2023-02-13T22:04:59.343Z,3.83
2023-02-13T22:08:02.903Z,3.82
2023-02-13T22:11:05.529Z,3.84
2023-02-13T22:13:48.322Z,3.86
2023-02-13T22:16:58.862Z,3.91
2023-02-13T22:19:47.383Z,3.97
2023-02-13T22:22:32.421Z,3.98
2023-02-13T22:25:20.497Z,3.97
2023-02-13T22:28:15.247Z,3.95
2023-02-13T22:30:56.431Z,3.93
2023-02-13T22:33:40.479Z,3.90
2023-02-13T22:36:23.192Z,3.89
2023-02-13T22:39:35.390Z,3.89
2023-02-13T22:42:10.723Z,3.90
2023-02-13T22:44:58.532Z,3.86
2023-02-13T22:47:34.080Z,3.83
2023-02-13T22:50:23.301Z,3.80
2023-02-13T22:52:57.982Z,3.78
2023-02-13T22:55:46.383Z,3.79
2023-02-13T22:58:20.957Z,3.82
2023-02-13T23:01:09.646Z,3.84
2023-02-13T23:03:51.356Z,3.84
2023-02-13T23:06:40.308Z,3.83
2023-02-13T23:09:14.945Z,3.82
2023-02-13T23:12:22.520Z,3.81
2023-02-13T23:14:58.227Z,3.80
2023-02-13T23:18:04.322Z,3.82
2023-02-13T23:20:52.388Z,3.81
2023-02-13T23:23:27.722Z,3.79
2023-02-13T23:26:15.865Z,3.77
2023-02-13T23:28:56.531Z,3.74
2023-02-13T23:31:37.396Z,3.74
2023-02-13T23:34:18.462Z,3.75
2023-02-13T23:36:59.307Z,3.76
2023-02-13T23:39:47.302Z,3.75
2023-02-13T23:42:28.359Z,3.74
2023-02-13T23:45:10.432Z,3.71
2023-02-13T23:47:51.300Z,3.70
2023-02-13T23:50:39.367Z,3.73
2023-02-13T23:53:20.298Z,3.73
2023-02-13T23:56:08.315Z,3.74
2023-02-13T23:58:42.715Z,3.74
